createdAt,value
2018-09-04T00:00:00.530Z,98.14
2018-09-04T00:02:32.532Z,98.02
2018-09-04T00:05:04.128Z,97.65
2018-09-04T00:07:34.298Z,98.25
2018-09-04T00:10:05.783Z,98.05
2018-09-04T00:12:37.716Z,97.95
2018-09-04T00:15:08.684Z,97.84
2018-09-04T00:17:40.472Z,97.15
2018-09-04T00:20:11.866Z,97.69
2018-09-04T00:22:42.247Z,97.70
2018-09-04T00:25:12.455Z,97.91
2018-09-04T00:27:42.784Z,98.08
2018-09-04T00:30:14.636Z,97.41
2018-09-04T00:32:44.854Z,97.12
2018-09-04T00:35:15.512Z,97.27
2018-09-04T00:37:45.903Z,97.31
2018-09-04T00:40:16.165Z,97.07
2018-09-04T00:42:46.414Z,96.45
2018-09-04T00:45:17.966Z,97.12
2018-09-04T00:47:48.293Z,97.51
2018-09-04T00:50:18.731Z,96.50
2018-09-04T00:52:50.822Z,97.34
2018-09-04T00:55:30.558Z,97.55
2018-09-04T00:58:00.732Z,97.76
2018-09-04T01:00:33.048Z,97.59
2018-09-04T01:03:03.257Z,96.94
2018-09-04T01:05:33.401Z,97.41
2018-09-04T01:08:03.767Z,96.75
2018-09-04T01:10:34.018Z,97.34
2018-09-04T01:13:04.683Z,97.29
2018-09-04T01:15:36.569Z,96.98
2018-09-04T01:18:06.865Z,96.43
2018-09-04T01:20:37.046Z,96.66
2018-09-04T01:23:08.857Z,96.51
2018-09-04T01:25:45.292Z,97.19
2018-09-04T01:28:15.543Z,97.34
2018-09-04T01:30:48.037Z,97.00
2018-09-04T01:33:18.249Z,96.52
2018-09-04T01:35:48.477Z,96.67
2018-09-04T01:38:22.184Z,96.73
2018-09-04T01:40:52.399Z,96.81
2018-09-04T01:43:23.003Z,96.43
2018-09-04T01:45:55.049Z,96.93
2018-09-04T01:48:27.599Z,96.42
2018-09-04T01:50:58.039Z,96.83
2018-09-04T01:53:28.231Z,96.22
2018-09-04T01:55:59.356Z,96.53
2018-09-04T01:58:30.943Z,96.51
2018-09-04T02:01:02.244Z,96.41
2018-09-04T02:03:32.403Z,96.21
2018-09-04T02:06:03.789Z,96.14
2018-09-04T02:08:35.183Z,96.31
2018-09-04T02:11:05.364Z,96.36
2018-09-04T02:13:35.515Z,95.35
2018-09-04T02:16:06.109Z,95.79
2018-09-04T02:18:36.269Z,96.34
2018-09-04T02:21:09.205Z,96.90
2018-09-04T02:23:40.397Z,95.65
2018-09-04T02:26:11.165Z,95.97
2018-09-04T02:28:43.223Z,95.44
2018-09-04T02:31:14.557Z,95.57
2018-09-04T02:33:44.659Z,95.35
2018-09-04T02:36:15.455Z,95.61
2018-09-04T02:38:45.997Z,95.77
2018-09-04T02:41:17.919Z,96.14
2018-09-04T02:43:48.976Z,96.92
2018-09-04T02:46:21.033Z,96.73
2018-09-04T02:48:51.880Z,96.53
2018-09-04T02:51:22.072Z,96.69
2018-09-04T02:53:54.226Z,96.45
2018-09-04T02:56:24.590Z,96.50
2018-09-04T02:58:56.041Z,97.11
2018-09-04T03:01:26.965Z,97.70
2018-09-04T03:03:57.792Z,97.38
2018-09-04T03:06:29.253Z,97.87
2018-09-04T03:08:59.457Z,98.65
2018-09-04T03:11:29.709Z,98.38
2018-09-04T03:13:59.941Z,99.03
2018-09-04T03:16:30.267Z,98.88
2018-09-04T03:19:00.494Z,98.80
2018-09-04T03:21:31.388Z,98.84
2018-09-04T03:24:01.582Z,99.35
2018-09-04T03:26:31.755Z,98.84
2018-09-04T03:29:02.192Z,98.79
2018-09-04T03:31:34.714Z,99.53
2018-09-04T03:34:04.883Z,98.61
2018-09-04T03:36:37.040Z,98.86
2018-09-04T03:39:09.864Z,98.16
2018-09-04T03:41:40.816Z,98.36
2018-09-04T03:44:12.512Z,98.85
2018-09-04T03:46:44.092Z,99.01
2018-09-04T03:49:14.516Z,99.12
2018-09-04T03:51:45.184Z,99.53
2018-09-04T03:54:16.615Z,99.75
2018-09-04T03:56:54.644Z,99.70
2018-09-04T03:59:26.519Z,99.28
2018-09-04T04:01:58.467Z,98.79
2018-09-04T04:04:29.315Z,99.50
2018-09-04T04:06:59.479Z,99.49
2018-09-04T04:09:30.450Z,99.60
2018-09-04T04:12:00.733Z,99.81
2018-09-04T04:14:30.874Z,99.11
2018-09-04T04:17:02.433Z,99.17
2018-09-04T04:19:32.926Z,99.59
2018-09-04T04:22:04.448Z,100.00
2018-09-04T04:24:35.492Z,100.00
2018-09-04T04:27:05.824Z,99.30
2018-09-04T04:29:36.531Z,99.43
2018-09-04T04:32:07.721Z,99.35
2018-09-04T04:34:39.566Z,99.95
2018-09-04T04:37:09.696Z,99.56
2018-09-04T04:39:40.151Z,99.06
2018-09-04T04:42:10.340Z,99.48
2018-09-04T04:44:41.458Z,99.79
2018-09-04T04:47:11.976Z,99.10
2018-09-04T04:49:42.174Z,99.48
2018-09-04T04:52:15.449Z,98.92
2018-09-04T04:54:46.296Z,99.11
2018-09-04T04:57:18.292Z,98.41
2018-09-04T04:59:49.721Z,99.25
2018-09-04T05:02:20.851Z,98.49
2018-09-04T05:04:52.259Z,98.85
2018-09-04T05:07:22.429Z,97.91
2018-09-04T05:09:53.497Z,98.10
2018-09-04T05:12:24.404Z,98.42
2018-09-04T05:14:54.556Z,98.59
2018-09-04T05:17:24.701Z,97.92
2018-09-04T05:19:54.887Z,98.27
2018-09-04T05:22:25.553Z,97.57
2018-09-04T05:24:56.979Z,96.97
2018-09-04T05:27:33.736Z,97.02
2018-09-04T05:30:05.761Z,97.50
2018-09-04T05:32:41.773Z,97.01
2018-09-04T05:35:16.100Z,96.43
2018-09-04T05:37:52.641Z,96.27
2018-09-04T05:40:25.010Z,96.20
2018-09-04T05:42:59.183Z,95.19
2018-09-04T05:45:30.593Z,94.61
2018-09-04T05:48:06.630Z,95.18
2018-09-04T05:50:37.078Z,93.97
2018-09-04T05:53:08.803Z,94.59
2018-09-04T05:55:40.094Z,93.84
2018-09-04T05:58:11.888Z,94.74
2018-09-04T06:00:46.004Z,95.19
2018-09-04T06:03:17.244Z,95.01
2018-09-04T06:05:47.875Z,94.15
2018-09-04T06:08:18.056Z,94.17
2018-09-04T06:10:48.814Z,94.91
2018-09-04T06:13:22.514Z,94.69
2018-09-04T06:15:52.656Z,94.49
2018-09-04T06:18:22.988Z,94.59
2018-09-04T06:20:54.246Z,94.18
2018-09-04T06:23:24.357Z,93.87
2018-09-04T06:25:55.131Z,94.29
2018-09-04T06:28:25.421Z,94.52
2018-09-04T06:30:56.984Z,93.08
2018-09-04T06:33:27.162Z,93.48
2018-09-04T06:35:57.620Z,93.62
2018-09-04T06:38:27.851Z,93.52
2018-09-04T06:40:58.614Z,92.71
2018-09-04T06:43:28.797Z,93.06
2018-09-04T06:45:59.953Z,93.64
2018-09-04T06:48:31.076Z,93.50
2018-09-04T06:51:02.826Z,92.52
2018-09-04T06:53:33.290Z,93.02
2018-09-04T06:56:04.546Z,93.07
2018-09-04T06:58:35.801Z,92.74
2018-09-04T07:01:07.459Z,92.13
2018-09-04T07:03:39.445Z,92.20
2018-09-04T07:06:11.338Z,92.10
2018-09-04T07:08:41.760Z,92.71
2018-09-04T07:11:18.650Z,92.98
2018-09-04T07:13:49.973Z,92.78
2018-09-04T07:16:20.380Z,92.95
2018-09-04T07:18:51.840Z,92.94
2018-09-04T07:21:22.966Z,92.63
2018-09-04T07:23:53.692Z,92.29
2018-09-04T07:26:23.990Z,91.79
2018-09-04T07:28:58.478Z,91.34
2018-09-04T07:31:32.014Z,92.24
2018-09-04T07:34:03.005Z,92.18
2018-09-04T07:36:33.215Z,91.62
2018-09-04T07:39:05.478Z,90.83
2018-09-04T07:41:37.875Z,91.20
2018-09-04T07:44:08.792Z,91.77
2018-09-04T07:46:39.048Z,91.12
2018-09-04T07:49:09.220Z,91.96
2018-09-04T07:51:39.354Z,91.26
2018-09-04T07:54:09.526Z,90.59
2018-09-04T07:56:39.904Z,90.89
2018-09-04T07:59:09.860Z,89.75
2018-09-04T08:01:39.962Z,89.10
2018-09-04T08:04:10.018Z,89.05
2018-09-04T08:06:40.177Z,87.45
2018-09-04T08:09:10.256Z,86.87
2018-09-04T08:11:40.436Z,86.66
2018-09-04T08:14:10.928Z,86.34
2018-09-04T08:16:42.101Z,86.71
2018-09-04T08:19:12.108Z,85.39
2018-09-04T08:21:44.571Z,86.25
2018-09-04T08:24:14.683Z,85.20
2018-09-04T08:26:44.806Z,86.09
2018-09-04T08:29:14.863Z,85.63
2018-09-04T08:31:44.926Z,84.62
2018-09-04T08:34:15.139Z,84.40
2018-09-04T08:36:45.271Z,81.93
2018-09-04T08:39:15.453Z,80.99
2018-09-04T08:41:45.554Z,79.75
2018-09-04T08:44:15.668Z,80.68
2018-09-04T08:46:45.802Z,79.04
2018-09-04T08:49:15.916Z,77.15
2018-09-04T08:51:46.046Z,75.79
2018-09-04T08:54:16.059Z,76.18
2018-09-04T08:56:46.198Z,75.73
2018-09-04T08:59:16.537Z,74.66
2018-09-04T09:01:46.637Z,75.62
2018-09-04T09:04:16.752Z,75.60
2018-09-04T09:06:47.062Z,74.21
2018-09-04T09:09:17.480Z,75.07
2018-09-04T09:11:47.580Z,74.66
2018-09-04T09:14:18.651Z,74.93
2018-09-04T09:16:49.021Z,75.51
2018-09-04T09:19:19.174Z,75.49
2018-09-04T09:21:49.308Z,73.72
2018-09-04T09:24:20.809Z,72.90
2018-09-04T09:26:51.236Z,73.51
2018-09-04T09:29:21.978Z,72.99
2018-09-04T09:31:52.082Z,71.99
2018-09-04T09:34:22.352Z,71.61
2018-09-04T09:36:52.537Z,71.37
2018-09-04T09:39:22.657Z,70.52
2018-09-04T09:41:52.834Z,71.37
2018-09-04T09:44:24.441Z,69.14
2018-09-04T09:46:58.644Z,69.44
2018-09-04T09:49:28.759Z,67.46
2018-09-04T09:51:59.470Z,64.81
2018-09-04T09:54:30.040Z,60.05
2018-09-04T09:57:00.388Z,61.68
2018-09-04T09:59:30.586Z,59.54
2018-09-04T10:02:05.855Z,58.81
2018-09-04T10:04:36.099Z,58.58
2018-09-04T10:07:06.203Z,59.43
2018-09-04T10:09:36.385Z,59.18
2018-09-04T10:12:06.638Z,59.15
2018-09-04T10:14:37.397Z,58.06
2018-09-04T10:17:08.194Z,58.79
2018-09-04T10:19:38.700Z,57.08
2018-09-04T10:22:08.802Z,57.97
2018-09-04T10:24:38.919Z,56.15
2018-09-04T10:27:10.804Z,55.01
2018-09-04T10:29:40.969Z,55.07
2018-09-04T10:32:11.065Z,54.89
2018-09-04T10:34:41.286Z,53.40
2018-09-04T10:37:11.471Z,55.27
2018-09-04T10:39:46.820Z,56.96
2018-09-04T10:42:23.534Z,56.91
2018-09-04T10:44:54.232Z,55.94
2018-09-04T10:47:25.574Z,54.87
2018-09-04T10:49:57.725Z,51.96
2018-09-04T10:52:28.541Z,50.75
2018-09-04T10:54:59.019Z,50.84
2018-09-04T10:57:30.455Z,50.92
2018-09-04T11:00:01.215Z,49.08
2018-09-04T11:02:31.699Z,47.92
2018-09-04T11:05:02.384Z,49.24
2018-09-04T11:07:32.470Z,50.40
2018-09-04T11:10:03.405Z,49.36
2018-09-04T11:12:33.771Z,51.61
2018-09-04T11:15:04.365Z,51.32
2018-09-04T11:17:34.991Z,50.38
2018-09-04T11:20:06.151Z,49.51
2018-09-04T11:22:36.632Z,49.23
2018-09-04T11:25:07.983Z,48.70
2018-09-04T11:27:39.008Z,50.24
2018-09-04T11:30:12.416Z,46.81
2018-09-04T11:32:43.267Z,46.28
2018-09-04T11:35:25.297Z,46.37
2018-09-04T11:37:55.933Z,47.34
2018-09-04T11:40:26.701Z,45.95
2018-09-04T11:42:57.226Z,44.37
2018-09-04T11:45:27.721Z,41.01
2018-09-04T11:48:00.879Z,40.38
2018-09-04T11:50:31.660Z,40.67
2018-09-04T11:53:02.168Z,40.56
2018-09-04T11:55:32.877Z,42.14
2018-09-04T11:58:03.210Z,44.12
2018-09-04T12:00:37.745Z,46.21
2018-09-04T12:03:09.692Z,46.83
2018-09-04T12:05:46.464Z,46.25
2018-09-04T12:08:16.554Z,47.48
2018-09-04T12:10:46.737Z,46.65
2018-09-04T12:13:23.013Z,46.04
2018-09-04T12:15:53.266Z,48.33
2018-09-04T12:18:23.501Z,47.77
2018-09-04T12:20:54.901Z,45.58
2018-09-04T12:23:25.301Z,46.21
2018-09-04T12:25:56.572Z,38.53
2018-09-04T12:28:26.739Z,35.92
2018-09-04T12:30:57.559Z,32.43
2018-09-04T12:33:28.062Z,31.31
2018-09-04T12:35:58.472Z,30.70
2018-09-04T12:38:30.869Z,31.45
2018-09-04T12:41:06.374Z,33.29
2018-09-04T12:43:39.738Z,32.48
2018-09-04T12:46:16.664Z,32.99
2018-09-04T12:48:49.470Z,34.03
2018-09-04T12:51:26.284Z,33.02
2018-09-04T12:53:57.682Z,32.57
2018-09-04T12:56:28.031Z,32.44
2018-09-04T12:59:04.516Z,33.64
2018-09-04T13:01:34.744Z,37.07
2018-09-04T13:04:04.966Z,38.81
2018-09-04T13:06:35.597Z,39.90
2018-09-04T13:09:06.682Z,35.75
2018-09-04T13:11:37.104Z,36.51
2018-09-04T13:14:07.278Z,36.41
2018-09-04T13:16:37.599Z,34.63
2018-09-04T13:19:07.810Z,34.79
2018-09-04T13:21:37.924Z,34.74
2018-09-04T13:24:08.930Z,35.49
2018-09-04T13:26:39.110Z,37.67
2018-09-04T13:29:09.272Z,37.98
2018-09-04T13:31:39.480Z,35.62
2018-09-04T13:34:09.748Z,34.85
2018-09-04T13:36:40.238Z,35.64
2018-09-04T13:39:10.397Z,37.51
2018-09-04T13:41:40.644Z,35.49
2018-09-04T13:44:10.699Z,36.10
2018-09-04T13:46:41.014Z,37.58
2018-09-04T13:49:11.287Z,37.11
2018-09-04T13:51:41.438Z,38.27
2018-09-04T13:54:11.617Z,36.93
2018-09-04T13:56:41.869Z,35.12
2018-09-04T13:59:12.102Z,33.55
2018-09-04T14:01:42.313Z,32.71
2018-09-04T14:04:13.286Z,35.10
2018-09-04T14:06:43.923Z,35.26
2018-09-04T14:09:14.118Z,32.89
2018-09-04T14:11:44.277Z,34.32
2018-09-04T14:14:14.490Z,34.76
2018-09-04T14:16:44.645Z,34.13
2018-09-04T14:19:14.871Z,32.81
2018-09-04T14:21:44.995Z,33.04
2018-09-04T14:24:15.208Z,33.33
2018-09-04T14:26:45.537Z,32.31
2018-09-04T14:29:53.166Z,30.16
2018-09-04T14:31:47.269Z,31.31
2018-09-04T14:34:17.517Z,33.03
2018-09-04T14:36:48.452Z,33.94
2018-09-04T14:39:18.401Z,35.63
2018-09-04T14:41:48.730Z,35.31
2018-09-04T14:44:18.997Z,33.88
2018-09-04T14:46:49.442Z,35.55
2018-09-04T14:49:19.669Z,35.00
2018-09-04T14:51:49.903Z,36.62
2018-09-04T14:54:20.121Z,38.37
2018-09-04T14:56:50.496Z,38.97
2018-09-04T14:59:20.763Z,39.93
2018-09-04T15:01:51.134Z,40.27
2018-09-04T15:04:22.105Z,39.53
2018-09-04T15:06:52.479Z,39.57
2018-09-04T15:09:22.743Z,39.82
2018-09-04T15:11:53.063Z,39.88
2018-09-04T15:14:23.311Z,40.57
2018-09-04T15:16:55.661Z,40.00
2018-09-04T15:19:26.963Z,38.13
2018-09-04T15:21:57.205Z,40.02
2018-09-04T15:24:27.374Z,38.70
2018-09-04T15:26:57.678Z,39.97
2018-09-04T15:29:27.991Z,40.63
2018-09-04T15:31:58.216Z,39.66
2018-09-04T15:34:28.411Z,41.23
2018-09-04T15:36:58.735Z,40.38
2018-09-04T15:39:28.909Z,39.87
2018-09-04T15:41:59.894Z,41.20
2018-09-04T15:44:30.141Z,42.74
2018-09-04T15:47:02.415Z,43.56
2018-09-04T15:49:39.325Z,43.34
2018-09-04T15:52:10.294Z,43.52
2018-09-04T15:54:41.859Z,43.01
2018-09-04T15:57:12.865Z,44.16
2018-09-04T15:59:56.181Z,44.60
2018-09-04T16:02:26.450Z,46.62
2018-09-04T16:04:56.566Z,48.38
2018-09-04T16:07:26.810Z,48.51
2018-09-04T16:09:57.201Z,47.93
2018-09-04T16:12:27.304Z,49.82
2018-09-04T16:14:58.458Z,49.96
2018-09-04T16:24:37.962Z,50.27
2018-09-04T16:27:15.581Z,51.22
2018-09-04T16:29:48.218Z,51.80
2018-09-04T16:32:26.127Z,51.83
2018-09-04T16:35:18.427Z,52.54
2018-09-04T16:37:51.505Z,52.50
2018-09-04T16:40:35.062Z,53.00
2018-09-04T16:43:18.650Z,52.07
2018-09-04T16:45:51.254Z,51.55
2018-09-04T16:48:22.076Z,51.35
2018-09-04T16:50:52.793Z,51.63
2018-09-04T16:53:23.766Z,53.14
2018-09-04T16:56:20.092Z,53.09
2018-09-04T16:58:53.304Z,53.76
2018-09-04T17:01:23.862Z,54.67
2018-09-04T17:03:54.077Z,54.13
2018-09-04T17:06:24.329Z,55.33
2018-09-04T17:08:54.452Z,55.25
2018-09-04T17:11:24.638Z,55.02
2018-09-04T17:13:54.792Z,55.32
2018-09-04T17:16:24.905Z,54.79
2018-09-04T17:18:55.128Z,55.95
2018-09-04T17:21:25.274Z,54.51
2018-09-04T17:23:55.527Z,54.67
2018-09-04T17:26:25.746Z,55.73
2018-09-04T17:28:57.916Z,58.62
2018-09-04T17:31:28.170Z,59.39
2018-09-04T17:33:58.401Z,58.01
2018-09-04T17:36:28.951Z,58.68
2018-09-04T17:39:00.216Z,58.98
2018-09-04T17:41:31.075Z,59.12
2018-09-04T17:44:01.172Z,58.77
2018-09-04T17:46:32.179Z,59.91
2018-09-04T17:49:02.643Z,61.20
2018-09-04T17:51:32.869Z,60.79
2018-09-04T17:54:04.766Z,62.36
2018-09-04T17:59:23.228Z,65.27
2018-09-04T18:01:54.169Z,64.78
2018-09-04T18:04:24.318Z,65.47
2018-09-04T18:06:54.477Z,64.68
2018-09-04T18:09:26.700Z,64.90
2018-09-04T18:11:59.329Z,64.52
2018-09-04T18:14:33.650Z,65.20
2018-09-04T18:17:03.968Z,66.63
2018-09-04T18:20:23.293Z,66.54
2018-09-04T18:22:55.129Z,66.92
2018-09-04T18:25:26.583Z,66.57
2018-09-04T18:27:56.957Z,66.44
2018-09-04T18:30:29.448Z,66.29
2018-09-04T18:33:02.807Z,66.20
2018-09-04T18:35:34.034Z,66.93
2018-09-04T18:55:18.033Z,71.04
2018-09-04T18:57:48.109Z,72.35
2018-09-04T19:00:19.015Z,72.02
2018-09-04T19:02:52.024Z,72.33
2018-09-04T19:05:22.555Z,73.05
2018-09-04T19:07:52.732Z,73.32
2018-09-04T19:10:26.415Z,74.09
2018-09-04T19:12:58.496Z,74.75
2018-09-04T19:15:31.792Z,75.52
2018-09-04T19:18:02.323Z,75.81
2018-09-04T19:20:32.994Z,76.21
2018-09-04T19:23:03.323Z,76.13
2018-09-04T19:25:33.504Z,76.46
2018-09-04T19:28:06.216Z,76.91
2018-09-04T19:30:36.481Z,75.65
2018-09-04T19:33:06.796Z,76.45
2018-09-04T19:35:36.906Z,76.33
2018-09-04T19:38:08.057Z,76.46
2018-09-04T19:40:38.415Z,76.68
2018-09-04T19:43:09.036Z,76.36
2018-09-04T19:45:39.511Z,77.23
2018-09-04T19:48:09.975Z,77.56
2018-09-04T19:50:40.600Z,77.38
2018-09-04T19:53:10.817Z,79.04
2018-09-04T19:55:41.144Z,77.74
2018-09-04T19:58:11.296Z,78.76
2018-09-04T20:00:41.549Z,77.91
2018-09-04T20:03:11.637Z,79.72
2018-09-04T20:05:41.995Z,81.07
2018-09-04T20:08:12.330Z,81.11
2018-09-04T20:10:42.821Z,81.50
2018-09-04T20:13:13.049Z,81.29
2018-09-04T20:15:43.253Z,80.45
2018-09-04T20:18:13.521Z,81.53
2018-09-04T20:20:43.840Z,81.79
2018-09-04T20:23:14.278Z,81.68
2018-09-04T20:25:44.502Z,82.50
2018-09-04T20:28:15.592Z,82.44
2018-09-04T20:30:46.268Z,83.07
2018-09-04T20:33:17.075Z,81.74
2018-09-04T20:35:47.287Z,84.15
2018-09-04T20:38:17.429Z,83.80
2018-09-04T20:40:47.899Z,82.27
2018-09-04T20:43:18.019Z,81.55
2018-09-04T20:45:48.190Z,81.90
2018-09-04T20:48:18.488Z,82.80
2018-09-04T20:50:49.380Z,82.79
2018-09-04T20:53:19.606Z,83.75
2018-09-04T20:55:49.928Z,83.70
2018-09-04T20:58:31.154Z,83.73
2018-09-04T21:01:12.365Z,83.21
2018-09-04T21:03:53.541Z,82.61
2018-09-04T21:06:34.751Z,84.98
2018-09-04T21:09:17.576Z,84.10
2018-09-04T21:11:47.645Z,83.11
2018-09-04T21:14:19.350Z,83.19
2018-09-04T21:16:49.551Z,84.70
2018-09-04T21:19:20.062Z,83.80
2018-09-04T21:21:51.438Z,83.96
2018-09-04T21:24:21.572Z,84.19
2018-09-04T21:26:51.803Z,83.95
2018-09-04T21:29:21.941Z,83.70
2018-09-04T21:31:52.095Z,83.48
2018-09-04T21:34:22.575Z,84.45
2018-09-04T21:36:53.080Z,84.64
2018-09-04T21:39:23.239Z,84.50
2018-09-04T21:41:53.470Z,83.71
2018-09-04T21:44:24.095Z,82.93
2018-09-04T21:46:54.438Z,81.24
2018-09-04T21:49:24.722Z,82.19
2018-09-04T21:51:54.832Z,83.58
2018-09-04T21:54:24.993Z,83.86
2018-09-04T21:56:55.313Z,83.99
2018-09-04T21:59:25.500Z,82.77
2018-09-04T22:01:55.879Z,82.83
2018-09-04T22:04:26.077Z,82.35
2018-09-04T22:06:56.279Z,81.94
2018-09-04T22:09:27.320Z,81.83
2018-09-04T22:11:58.216Z,81.35
2018-09-04T22:14:29.446Z,81.74
2018-09-04T22:17:00.032Z,82.28
2018-09-04T22:19:30.302Z,82.27
2018-09-04T22:22:00.641Z,83.99
2018-09-04T22:24:34.016Z,83.16
2018-09-04T22:27:10.151Z,82.10
2018-09-04T22:29:42.416Z,81.88
2018-09-04T22:32:13.381Z,81.79
2018-09-04T22:34:43.549Z,81.97
2018-09-04T22:37:13.659Z,81.51
2018-09-04T22:39:43.780Z,81.34
2018-09-04T22:42:13.857Z,81.03
2018-09-04T22:44:43.965Z,80.38
2018-09-04T22:47:14.133Z,80.63
2018-09-04T22:49:49.355Z,79.76
2018-09-04T22:52:23.491Z,80.19
2018-09-04T22:54:57.312Z,81.66
2018-09-04T22:57:27.435Z,82.65
2018-09-04T22:59:57.568Z,82.49
2018-09-04T23:02:27.827Z,82.92
2018-09-04T23:04:57.995Z,83.96
2018-09-04T23:07:30.096Z,85.06
2018-09-04T23:10:00.172Z,86.66
2018-09-04T23:12:34.948Z,84.62
2018-09-04T23:15:06.716Z,84.06
2018-09-04T23:17:36.868Z,84.54
2018-09-04T23:20:07.151Z,83.00
2018-09-04T23:22:37.263Z,84.73
2018-09-04T23:25:07.344Z,86.91
2018-09-04T23:27:37.384Z,86.44
2018-09-04T23:30:07.538Z,85.06
2018-09-04T23:32:38.522Z,85.66
2018-09-04T23:35:08.658Z,86.67
2018-09-04T23:37:38.648Z,86.12
2018-09-04T23:40:08.866Z,85.46
2018-09-04T23:42:38.983Z,84.82
2018-09-04T23:45:12.418Z,85.88
2018-09-04T23:47:43.610Z,86.19
2018-09-04T23:50:13.742Z,87.28
2018-09-04T23:52:43.838Z,87.21
2018-09-04T23:55:13.942Z,86.45
2018-09-04T23:57:44.101Z,87.42
